createdAt,value
2023-06-18T03:42:06.005Z,23.70
2023-06-18T04:35:07.530Z,7.05
2023-06-18T04:38:57.185Z,13.75
2023-06-18T07:56:10.936Z,10.70
2023-06-18T07:59:14.794Z,8.93
2023-06-18T08:03:23.312Z,10.55
2023-06-18T08:06:29.861Z,16.17
2023-06-18T08:31:04.859Z,12.43
2023-06-18T08:34:15.296Z,12.15
2023-06-18T08:38:08.594Z,13.85
2023-06-18T08:42:04.501Z,16.98
2023-06-18T08:45:09.389Z,15.93
2023-06-18T08:48:27.299Z,11.43
2023-06-18T08:51:33.949Z,8.27
2023-06-18T08:54:39.981Z,12.80
2023-06-18T08:58:13.764Z,12.25
2023-06-18T09:01:20.439Z,14.07
2023-06-18T09:04:26.796Z,14.15
2023-06-18T09:07:30.602Z,10.57
2023-06-18T09:10:34.714Z,12.52
2023-06-18T09:13:43.437Z,11.10
2023-06-18T09:16:47.133Z,9.02
2023-06-18T09:19:52.391Z,8.32
2023-06-18T09:22:56.053Z,10.73
2023-06-18T09:26:16.394Z,11.50
2023-06-18T09:29:33.148Z,11.82
2023-06-18T09:32:51.044Z,13.73
2023-06-18T09:36:08.565Z,14.45
2023-06-18T09:44:34.689Z,12.50
2023-06-18T09:47:43.596Z,11.50
2023-06-18T09:50:59.974Z,12.20
2023-06-18T09:55:19.722Z,14.93
2023-06-18T09:59:16.137Z,14.13
2023-06-18T10:02:27.220Z,11.23
2023-06-18T10:09:51.298Z,9.98
2023-06-18T10:13:01.226Z,10.77
2023-06-18T10:16:35.857Z,11.90
2023-06-18T10:19:50.159Z,9.73
2023-06-18T10:23:02.330Z,9.95
2023-06-18T10:27:12.443Z,9.63
2023-06-18T10:36:11.334Z,8.55
2023-06-18T10:44:48.751Z,9.63
2023-06-18T10:52:54.232Z,10.10
2023-06-18T10:56:06.880Z,10.32
2023-06-18T11:59:01.672Z,29.13
2023-06-18T12:05:55.215Z,25.35
2023-06-18T12:09:09.631Z,23.90
2023-06-18T12:13:17.759Z,21.42
2023-06-18T12:16:51.052Z,19.77
2023-06-18T12:21:00.606Z,19.30
2023-06-18T12:27:37.398Z,17.83
2023-06-18T12:31:59.935Z,14.63
2023-06-18T12:35:47.571Z,13.73
2023-06-18T12:39:38.397Z,14.20
2023-06-18T12:42:58.998Z,15.73
2023-06-18T12:46:38.992Z,15.48
2023-06-18T12:54:04.702Z,12.90
2023-06-18T12:57:32.709Z,13.40
2023-06-18T13:05:46.825Z,12.27
2023-06-18T13:13:29.186Z,16.95
2023-06-18T13:16:36.071Z,16.65
2023-06-18T13:19:59.615Z,18.33
2023-06-18T13:23:14.386Z,18.90
2023-06-18T13:26:20.619Z,17.27
2023-06-18T13:29:44.768Z,17.90
2023-06-18T13:32:49.438Z,18.38
2023-06-18T13:36:25.512Z,17.60
2023-06-18T13:40:22.818Z,20.08
2023-06-18T13:52:02.582Z,24.30
2023-06-18T13:55:07.620Z,15.07
2023-06-18T13:58:14.146Z,16.33
2023-06-18T14:00:07.536Z,19.02
2023-06-18T14:01:25.147Z,17.30
2023-06-18T14:04:28.913Z,10.27
2023-06-18T14:07:35.381Z,5.88
2023-06-18T14:10:41.603Z,6.95
2023-06-18T14:13:46.207Z,8.40
2023-06-18T14:16:49.838Z,5.22
2023-06-18T14:19:53.643Z,4.25
2023-06-18T14:22:57.711Z,5.93
2023-06-18T14:26:01.309Z,9.85
2023-06-18T14:29:05.337Z,6.80
2023-06-18T14:32:12.193Z,4.70
2023-06-18T14:35:15.751Z,5.07
2023-06-18T14:38:24.885Z,5.05
2023-06-18T14:41:29.063Z,6.43
2023-06-18T14:44:32.612Z,7.00
2023-06-18T14:47:37.125Z,6.43
2023-06-18T14:50:42.866Z,5.53
2023-06-18T14:53:52.753Z,7.85
2023-06-18T14:56:56.385Z,5.00
2023-06-18T15:00:00.512Z,4.80
2023-06-18T15:03:04.071Z,6.03
2023-06-18T15:06:07.656Z,5.28
2023-06-18T15:09:11.225Z,5.65
2023-06-18T15:12:14.680Z,7.25
2023-06-18T15:15:18.506Z,4.90
2023-06-18T15:18:22.695Z,6.93
2023-06-18T15:21:26.260Z,4.95
2023-06-18T15:24:31.667Z,3.88
2023-06-18T15:27:37.040Z,4.15
2023-06-18T15:30:40.563Z,3.80
2023-06-18T15:33:44.491Z,4.82
2023-06-18T15:36:48.012Z,4.57
2023-06-18T15:39:51.572Z,5.63
2023-06-18T15:42:55.122Z,4.75
2023-06-18T15:45:58.699Z,3.10
2023-06-18T15:49:02.559Z,3.55
2023-06-18T15:52:06.823Z,5.25
2023-06-18T15:55:11.303Z,8.63
2023-06-18T15:58:15.123Z,4.47
2023-06-18T16:01:18.677Z,5.18
2023-06-18T16:04:22.511Z,4.80
2023-06-18T16:07:25.983Z,6.13
2023-06-18T16:10:29.549Z,4.50
2023-06-18T16:13:33.074Z,5.53
2023-06-18T16:16:36.963Z,5.28
2023-06-18T16:19:40.597Z,2.85
2023-06-18T16:22:45.915Z,5.80
2023-06-18T16:25:49.508Z,4.47
2023-06-18T16:28:54.240Z,4.72
2023-06-18T16:31:57.786Z,4.78
2023-06-18T16:35:02.674Z,4.82
2023-06-18T16:38:06.265Z,5.72
2023-06-18T16:41:09.916Z,6.95
2023-06-18T16:44:13.446Z,5.50
2023-06-18T16:47:17.131Z,2.75
2023-06-18T16:50:20.640Z,5.82
2023-06-18T16:53:24.170Z,3.00
2023-06-18T16:56:27.793Z,4.70
2023-06-18T16:59:31.354Z,4.07
2023-06-18T17:02:35.032Z,3.88
2023-06-18T17:05:39.327Z,3.78
2023-06-18T17:08:42.830Z,3.25
2023-06-18T17:11:46.432Z,2.90
2023-06-18T17:14:49.895Z,4.90
2023-06-18T17:17:53.486Z,3.70
2023-06-18T17:20:58.464Z,4.30
2023-06-18T17:24:03.950Z,4.25
2023-06-18T17:27:10.516Z,3.88
2023-06-18T17:30:14.216Z,3.97
2023-06-18T17:33:17.693Z,2.67
2023-06-18T17:36:22.525Z,3.50
2023-06-18T17:39:26.047Z,3.72
2023-06-18T17:42:29.549Z,1.70
2023-06-18T17:45:33.003Z,4.18
2023-06-18T17:48:36.768Z,2.08
2023-06-18T17:51:40.328Z,2.03
2023-06-18T17:54:43.854Z,2.05
2023-06-18T17:57:47.402Z,1.88
2023-06-18T18:00:58.173Z,2.22
2023-06-18T18:04:01.857Z,1.70
2023-06-18T18:07:05.842Z,2.08
2023-06-18T18:10:09.977Z,1.80
2023-06-18T18:13:13.649Z,3.38
2023-06-18T18:16:17.608Z,3.10
2023-06-18T18:19:21.867Z,1.63
2023-06-18T18:22:25.436Z,5.57
2023-06-18T18:25:28.914Z,4.90
2023-06-18T18:28:32.452Z,3.78
2023-06-18T18:31:35.995Z,5.80
2023-06-18T18:34:39.532Z,5.80
2023-06-18T18:37:43.166Z,4.60
2023-06-18T18:40:47.618Z,5.88
2023-06-18T18:43:51.186Z,4.90
2023-06-18T18:46:54.652Z,3.53
2023-06-18T18:49:58.259Z,1.80
2023-06-18T18:53:01.825Z,4.13
2023-06-18T18:56:05.416Z,3.10
2023-06-18T18:59:09.745Z,1.95
2023-06-18T19:02:15.263Z,2.35
2023-06-18T19:05:18.820Z,1.05
2023-06-18T19:08:22.820Z,2.25
2023-06-18T19:11:26.565Z,2.28
2023-06-18T19:14:31.063Z,0.80
2023-06-18T19:17:34.609Z,1.77
2023-06-18T19:20:38.306Z,2.53
2023-06-18T19:23:41.818Z,0.82
2023-06-18T19:26:45.275Z,2.17
2023-06-18T19:29:48.791Z,2.95
2023-06-18T19:32:53.705Z,6.15
2023-06-18T19:35:57.233Z,3.03
2023-06-18T19:39:02.010Z,1.92
2023-06-18T19:42:07.106Z,2.30
2023-06-18T19:45:12.816Z,1.83
2023-06-18T19:48:17.751Z,1.95
2023-06-18T19:51:21.351Z,3.08
2023-06-18T19:54:25.192Z,2.35
2023-06-18T19:57:28.642Z,2.53
2023-06-18T20:00:35.413Z,2.10
2023-06-18T20:03:40.380Z,2.70
2023-06-18T20:06:43.965Z,2.38
2023-06-18T20:09:47.480Z,1.13
2023-06-18T20:12:51.089Z,1.15
2023-06-18T20:15:54.553Z,2.15
2023-06-18T20:18:58.562Z,1.98
2023-06-18T20:22:02.115Z,3.30
2023-06-18T20:25:05.996Z,1.83
2023-06-18T20:28:11.656Z,5.00
2023-06-18T20:31:15.222Z,1.48
2023-06-18T20:34:18.781Z,2.05
2023-06-18T20:37:22.428Z,3.60
2023-06-18T20:40:26.186Z,2.63
2023-06-18T20:43:29.743Z,2.35
2023-06-18T20:46:33.379Z,5.63
2023-06-18T20:49:37.041Z,3.38
2023-06-18T20:52:40.598Z,1.23
2023-06-18T20:55:44.159Z,2.08
2023-06-18T20:58:47.679Z,2.67
2023-06-18T21:01:53.318Z,1.45
2023-06-18T21:04:56.774Z,3.70
2023-06-18T21:08:00.301Z,2.17
2023-06-18T21:11:03.937Z,2.83
2023-06-18T21:14:07.448Z,2.13
2023-06-18T21:17:12.136Z,1.40
2023-06-18T21:20:15.774Z,3.13
2023-06-18T21:23:19.334Z,1.65
2023-06-18T21:26:23.046Z,2.80
2023-06-18T21:29:27.359Z,3.28
2023-06-18T21:32:30.901Z,5.05
2023-06-18T21:35:34.567Z,3.25
2023-06-18T21:38:38.141Z,4.93
2023-06-18T21:41:41.653Z,12.13
2023-06-18T21:44:45.241Z,1.92
2023-06-18T21:47:48.976Z,1.50
2023-06-18T21:50:52.487Z,1.38
2023-06-18T21:53:56.091Z,4.50
2023-06-18T21:56:59.542Z,4.22
2023-06-18T22:00:03.207Z,5.72
2023-06-18T22:03:13.711Z,7.70
2023-06-18T22:06:17.278Z,3.72
2023-06-18T22:09:22.926Z,2.75
2023-06-18T22:12:26.431Z,3.83
2023-06-18T22:15:30.052Z,6.43
2023-06-18T22:18:33.591Z,10.27
2023-06-18T22:21:37.078Z,18.00
2023-06-18T22:24:40.698Z,10.50
2023-06-18T22:27:44.763Z,6.82
2023-06-18T22:30:48.265Z,3.67
2023-06-18T22:33:52.090Z,17.42
2023-06-18T22:36:55.843Z,11.95
2023-06-18T22:40:03.184Z,9.32
2023-06-18T22:43:07.201Z,7.85
2023-06-18T22:46:10.830Z,5.20
2023-06-18T22:49:15.404Z,15.82
2023-06-18T22:52:18.985Z,5.95
2023-06-18T22:55:22.518Z,6.78
2023-06-18T22:58:25.998Z,7.88
2023-06-18T23:01:30.717Z,6.47
2023-06-18T23:04:34.243Z,16.75
2023-06-18T23:07:38.055Z,8.82
2023-06-18T23:10:41.432Z,9.05
2023-06-18T23:13:44.964Z,9.32
2023-06-18T23:16:49.092Z,4.88
2023-06-18T23:19:53.993Z,4.47
2023-06-18T23:22:57.539Z,11.55
2023-06-18T23:26:01.026Z,7.90
2023-06-18T23:29:04.721Z,6.32
2023-06-18T23:32:09.140Z,13.77
2023-06-18T23:35:13.237Z,16.23
2023-06-18T23:38:16.899Z,5.75
2023-06-18T23:41:20.308Z,9.73
2023-06-18T23:44:23.770Z,5.40
2023-06-18T23:47:27.294Z,6.78
2023-06-18T23:50:30.801Z,16.80
2023-06-18T23:53:34.262Z,14.60
2023-06-18T23:56:37.663Z,15.45
2023-06-18T23:59:41.318Z,10.07
